Terminal Aerodrome Forecast
Issued by NWS Sterling, VA

Home | Current Version | Previous Version | Text Only | Print | Product List | Glossary On
Versions: 1 2 3 4 5 6 7 8 9 10 11 12 13 14 15 16
193
FTUS41 KLWX 281901 AAA
TAFCHO
TAF AMD
KCHO 281901Z 2819/2918 VRB05KT P6SM FEW018 BKN026
      TEMPO 2819/2821 1SM -TSRA BKN015CB OVC025
     FM282100 18004KT 3SM -TSRA OVC030CB
     FM290300 VRB03KT 3SM SHRA VCTS OVC020CB
     FM290500 VRB03KT 3SM SHRA OVC008
     FM290800 36005KT 3SM SHRA OVC010
     FM291200 36008KT P6SM OVC025=

USA.gov is the U.S. government's official web portal to all federal, state and local government web resources and services.